BLR weather

Kempegowda International Airport
Bangalore, Karnataka, India

Public forecast

Using degrees Celsius for public forecast. Weather courtesy of forecast.io.

Current aviation weather report (METAR) for Kempegowda International Airport

Retrieved 2020/02/28 17:00 UTC (12 minutes ago):

VOBL 281700Z 11009KT 6000 NSC 23/18 Q1016 NOSIG

Aviation forecast (TAF) for Kempegowda International Airport

Retrieved 2020/02/28 12:00 UTC (5 hours ago):

TAF VOBL 281100Z 2812/2918 11005KT 6000 SCT015 BECMG 2822/2823 VRB02KT 3000 BR FEW010 TEMPO 2900/2903 2000 BR SCT008 BECMG 2904/2905 11010KT 6000 SCT015